sensor_id;sensor_type;location;lat;lon;timestamp;temperature;humidity
4874;DHT22;2451;49.970;9.068;2023-04-25T00:02:01;9.00;99.90
4874;DHT22;2451;49.970;9.068;2023-04-25T00:04:28;9.00;99.90
4874;DHT22;2451;49.970;9.068;2023-04-25T00:06:54;8.90;99.90
4874;DHT22;2451;49.970;9.068;2023-04-25T00:09:21;8.90;99.90
4874;DHT22;2451;49.970;9.068;2023-04-25T00:11:47;8.80;99.90
4874;DHT22;2451;49.970;9.068;2023-04-25T00:14:12;8.80;99.90
4874;DHT22;2451;49.970;9.068;2023-04-25T00:16:38;8.80;99.90
4874;DHT22;2451;49.970;9.068;2023-04-25T00:19:04;8.80;99.90
4874;DHT22;2451;49.970;9.068;2023-04-25T00:21:30;8.80;99.90
4874;DHT22;2451;49.970;9.068;2023-04-25T00:23:57;8.80;99.90
4874;DHT22;2451;49.970;9.068;2023-04-25T00:26:22;8.70;99.90
4874;DHT22;2451;49.970;9.068;2023-04-25T00:28:48;8.70;99.90
4874;DHT22;2451;49.970;9.068;2023-04-25T00:31:14;8.70;99.90
4874;DHT22;2451;49.970;9.068;2023-04-25T00:33:39;8.70;99.90
4874;DHT22;2451;49.970;9.068;2023-04-25T00:36:06;8.60;99.90
4874;DHT22;2451;49.970;9.068;2023-04-25T00:38:31;8.60;99.90
4874;DHT22;2451;49.970;9.068;2023-04-25T00:40:57;8.60;99.90
4874;DHT22;2451;49.970;9.068;2023-04-25T00:43:26;8.60;99.90
4874;DHT22;2451;49.970;9.068;2023-04-25T00:45:52;8.50;99.90
4874;DHT22;2451;49.970;9.068;2023-04-25T00:48:19;8.50;99.90
4874;DHT22;2451;49.970;9.068;2023-04-25T00:50:58;8.50;99.90
4874;DHT22;2451;49.970;9.068;2023-04-25T00:53:26;8.50;99.90
4874;DHT22;2451;49.970;9.068;2023-04-25T00:55:53;8.40;99.90
4874;DHT22;2451;49.970;9.068;2023-04-25T00:58:20;8.50;99.90
4874;DHT22;2451;49.970;9.068;2023-04-25T01:00:47;8.40;99.90
4874;DHT22;2451;49.970;9.068;2023-04-25T01:03:14;8.40;99.90
4874;DHT22;2451;49.970;9.068;2023-04-25T01:05:42;8.40;99.90
4874;DHT22;2451;49.970;9.068;2023-04-25T01:08:08;8.40;99.90
4874;DHT22;2451;49.970;9.068;2023-04-25T01:10:33;8.40;99.90
4874;DHT22;2451;49.970;9.068;2023-04-25T01:12:59;8.40;99.90
4874;DHT22;2451;49.970;9.068;2023-04-25T01:15:24;8.40;99.90
4874;DHT22;2451;49.970;9.068;2023-04-25T01:17:50;8.40;99.90
4874;DHT22;2451;49.970;9.068;2023-04-25T01:20:16;8.30;99.90
4874;DHT22;2451;49.970;9.068;2023-04-25T01:22:43;8.40;99.90
4874;DHT22;2451;49.970;9.068;2023-04-25T01:25:08;8.40;99.90
4874;DHT22;2451;49.970;9.068;2023-04-25T01:27:36;8.30;99.90
4874;DHT22;2451;49.970;9.068;2023-04-25T01:30:02;8.30;99.90
4874;DHT22;2451;49.970;9.068;2023-04-25T01:32:28;8.30;99.90
4874;DHT22;2451;49.970;9.068;2023-04-25T01:34:54;8.40;99.90
4874;DHT22;2451;49.970;9.068;2023-04-25T01:37:20;8.40;99.90
4874;DHT22;2451;49.970;9.068;2023-04-25T01:39:45;8.30;99.90
4874;DHT22;2451;49.970;9.068;2023-04-25T01:42:12;8.40;99.90
4874;DHT22;2451;49.970;9.068;2023-04-25T01:44:38;8.40;99.90
4874;DHT22;2451;49.970;9.068;2023-04-25T01:47:03;8.30;99.90
4874;DHT22;2451;49.970;9.068;2023-04-25T01:49:29;8.30;99.90
4874;DHT22;2451;49.970;9.068;2023-04-25T01:51:55;8.30;99.90
4874;DHT22;2451;49.970;9.068;2023-04-25T01:54:20;8.20;99.90
4874;DHT22;2451;49.970;9.068;2023-04-25T01:56:50;8.20;99.90
4874;DHT22;2451;49.970;9.068;2023-04-25T01:59:16;8.20;99.90
4874;DHT22;2451;49.970;9.068;2023-04-25T02:01:43;8.20;99.90
4874;DHT22;2451;49.970;9.068;2023-04-25T02:04:09;8.20;99.90
4874;DHT22;2451;49.970;9.068;2023-04-25T02:06:34;8.20;99.90
4874;DHT22;2451;49.970;9.068;2023-04-25T02:08:59;8.10;99.90
4874;DHT22;2451;49.970;9.068;2023-04-25T02:11:25;8.10;99.90
4874;DHT22;2451;49.970;9.068;2023-04-25T02:13:51;8.20;99.90
4874;DHT22;2451;49.970;9.068;2023-04-25T02:16:16;8.20;99.90
4874;DHT22;2451;49.970;9.068;2023-04-25T02:18:42;8.20;99.90
4874;DHT22;2451;49.970;9.068;2023-04-25T02:21:07;8.20;99.90
4874;DHT22;2451;49.970;9.068;2023-04-25T02:23:33;8.20;99.90
4874;DHT22;2451;49.970;9.068;2023-04-25T02:25:59;8.20;99.90
4874;DHT22;2451;49.970;9.068;2023-04-25T02:28:24;8.20;99.90
4874;DHT22;2451;49.970;9.068;2023-04-25T02:30:51;8.20;99.90
4874;DHT22;2451;49.970;9.068;2023-04-25T02:33:17;8.20;99.90
4874;DHT22;2451;49.970;9.068;2023-04-25T02:35:42;8.20;99.90
4874;DHT22;2451;49.970;9.068;2023-04-25T02:38:08;8.20;99.90
4874;DHT22;2451;49.970;9.068;2023-04-25T02:40:33;8.20;99.90
4874;DHT22;2451;49.970;9.068;2023-04-25T02:42:59;8.20;99.90
4874;DHT22;2451;49.970;9.068;2023-04-25T02:45:24;8.20;99.90
4874;DHT22;2451;49.970;9.068;2023-04-25T02:47:50;8.20;99.90
4874;DHT22;2451;49.970;9.068;2023-04-25T02:50:15;8.20;99.90
4874;DHT22;2451;49.970;9.068;2023-04-25T02:52:41;8.20;99.90
4874;DHT22;2451;49.970;9.068;2023-04-25T02:55:07;8.20;99.90
4874;DHT22;2451;49.970;9.068;2023-04-25T02:57:32;8.20;99.90
4874;DHT22;2451;49.970;9.068;2023-04-25T02:59:58;8.20;99.90
4874;DHT22;2451;49.970;9.068;2023-04-25T03:02:23;8.20;99.90
4874;DHT22;2451;49.970;9.068;2023-04-25T03:04:49;8.30;99.90
4874;DHT22;2451;49.970;9.068;2023-04-25T03:07:14;8.20;99.90
4874;DHT22;2451;49.970;9.068;2023-04-25T03:09:40;8.20;99.90
4874;DHT22;2451;49.970;9.068;2023-04-25T03:12:05;8.20;99.90
4874;DHT22;2451;49.970;9.068;2023-04-25T03:14:32;8.20;99.90
4874;DHT22;2451;49.970;9.068;2023-04-25T03:16:58;8.30;99.90
4874;DHT22;2451;49.970;9.068;2023-04-25T03:19:23;8.30;99.90
4874;DHT22;2451;49.970;9.068;2023-04-25T03:21:49;8.30;99.90
4874;DHT22;2451;49.970;9.068;2023-04-25T03:24:14;8.30;99.90
4874;DHT22;2451;49.970;9.068;2023-04-25T03:26:40;8.30;99.90
4874;DHT22;2451;49.970;9.068;2023-04-25T03:29:05;8.30;99.90
4874;DHT22;2451;49.970;9.068;2023-04-25T03:31:31;8.20;99.90
4874;DHT22;2451;49.970;9.068;2023-04-25T03:33:57;8.20;99.90
4874;DHT22;2451;49.970;9.068;2023-04-25T03:36:22;8.20;99.90
4874;DHT22;2451;49.970;9.068;2023-04-25T03:38:48;8.10;99.90
4874;DHT22;2451;49.970;9.068;2023-04-25T03:41:13;8.10;99.90
4874;DHT22;2451;49.970;9.068;2023-04-25T03:43:39;8.10;99.90
4874;DHT22;2451;49.970;9.068;2023-04-25T03:46:05;8.10;99.90
4874;DHT22;2451;49.970;9.068;2023-04-25T03:48:30;8.10;99.90
4874;DHT22;2451;49.970;9.068;2023-04-25T03:50:56;8.10;99.90
4874;DHT22;2451;49.970;9.068;2023-04-25T03:53:21;8.10;99.90
4874;DHT22;2451;49.970;9.068;2023-04-25T03:55:47;8.10;99.90
4874;DHT22;2451;49.970;9.068;2023-04-25T03:58:12;8.10;99.90
4874;DHT22;2451;49.970;9.068;2023-04-25T04:00:38;8.10;99.90
4874;DHT22;2451;49.970;9.068;2023-04-25T04:03:03;8.10;99.90
4874;DHT22;2451;49.970;9.068;2023-04-25T04:05:29;8.10;99.90
4874;DHT22;2451;49.970;9.068;2023-04-25T04:07:55;8.10;99.90
4874;DHT22;2451;49.970;9.068;2023-04-25T04:10:21;8.10;99.90
4874;DHT22;2451;49.970;9.068;2023-04-25T04:12:46;8.20;99.90
4874;DHT22;2451;49.970;9.068;2023-04-25T04:15:12;8.20;99.90
4874;DHT22;2451;49.970;9.068;2023-04-25T04:17:38;8.20;99.90
4874;DHT22;2451;49.970;9.068;2023-04-25T04:20:04;8.20;99.90
4874;DHT22;2451;49.970;9.068;2023-04-25T04:22:31;8.20;99.90
4874;DHT22;2451;49.970;9.068;2023-04-25T04:24:57;8.20;99.90
4874;DHT22;2451;49.970;9.068;2023-04-25T04:27:23;8.20;99.90
4874;DHT22;2451;49.970;9.068;2023-04-25T04:29:48;8.20;99.90
4874;DHT22;2451;49.970;9.068;2023-04-25T04:32:15;8.20;99.90
4874;DHT22;2451;49.970;9.068;2023-04-25T04:34:41;8.20;99.90
4874;DHT22;2451;49.970;9.068;2023-04-25T04:37:07;8.30;99.90
4874;DHT22;2451;49.970;9.068;2023-04-25T04:39:35;8.30;99.90
4874;DHT22;2451;49.970;9.068;2023-04-25T04:42:01;8.30;99.90
4874;DHT22;2451;49.970;9.068;2023-04-25T04:44:27;8.40;99.90
4874;DHT22;2451;49.970;9.068;2023-04-25T04:46:54;8.40;99.90
4874;DHT22;2451;49.970;9.068;2023-04-25T04:49:20;8.40;99.90
4874;DHT22;2451;49.970;9.068;2023-04-25T04:51:46;8.50;99.90
4874;DHT22;2451;49.970;9.068;2023-04-25T04:54:12;8.50;99.90
4874;DHT22;2451;49.970;9.068;2023-04-25T04:56:38;8.60;99.90
4874;DHT22;2451;49.970;9.068;2023-04-25T04:59:04;8.60;99.90
4874;DHT22;2451;49.970;9.068;2023-04-25T05:01:30;8.60;99.90
4874;DHT22;2451;49.970;9.068;2023-04-25T05:03:56;8.60;99.90
4874;DHT22;2451;49.970;9.068;2023-04-25T05:06:26;8.60;99.90
4874;DHT22;2451;49.970;9.068;2023-04-25T05:08:51;8.60;99.90
4874;DHT22;2451;49.970;9.068;2023-04-25T05:11:18;8.60;99.90
4874;DHT22;2451;49.970;9.068;2023-04-25T05:13:44;8.50;99.90
4874;DHT22;2451;49.970;9.068;2023-04-25T05:16:09;8.50;99.90
4874;DHT22;2451;49.970;9.068;2023-04-25T05:18:35;8.40;99.90
4874;DHT22;2451;49.970;9.068;2023-04-25T05:21:01;8.30;99.90
4874;DHT22;2451;49.970;9.068;2023-04-25T05:23:27;8.30;99.90
4874;DHT22;2451;49.970;9.068;2023-04-25T05:25:53;8.30;99.90
4874;DHT22;2451;49.970;9.068;2023-04-25T05:28:18;8.20;99.90
4874;DHT22;2451;49.970;9.068;2023-04-25T05:30:44;8.30;99.90
4874;DHT22;2451;49.970;9.068;2023-04-25T05:33:09;8.30;99.90
4874;DHT22;2451;49.970;9.068;2023-04-25T05:35:35;8.30;99.90
4874;DHT22;2451;49.970;9.068;2023-04-25T05:38:00;8.40;99.90
4874;DHT22;2451;49.970;9.068;2023-04-25T05:40:27;8.40;99.90
4874;DHT22;2451;49.970;9.068;2023-04-25T05:42:52;8.40;99.90
4874;DHT22;2451;49.970;9.068;2023-04-25T05:45:18;8.40;99.90
4874;DHT22;2451;49.970;9.068;2023-04-25T05:47:43;8.50;99.90
4874;DHT22;2451;49.970;9.068;2023-04-25T05:50:09;8.70;99.90
4874;DHT22;2451;49.970;9.068;2023-04-25T05:52:34;8.70;99.90
4874;DHT22;2451;49.970;9.068;2023-04-25T05:55:00;8.80;99.90
4874;DHT22;2451;49.970;9.068;2023-04-25T05:57:27;8.80;99.90
4874;DHT22;2451;49.970;9.068;2023-04-25T05:59:53;8.90;99.90
4874;DHT22;2451;49.970;9.068;2023-04-25T06:02:19;8.90;99.90
4874;DHT22;2451;49.970;9.068;2023-04-25T06:04:46;8.80;99.90
4874;DHT22;2451;49.970;9.068;2023-04-25T06:07:11;8.90;99.90
4874;DHT22;2451;49.970;9.068;2023-04-25T06:09:37;8.90;99.90
4874;DHT22;2451;49.970;9.068;2023-04-25T06:12:05;8.90;99.90
4874;DHT22;2451;49.970;9.068;2023-04-25T06:14:30;9.00;99.90
4874;DHT22;2451;49.970;9.068;2023-04-25T06:16:56;8.90;99.90
4874;DHT22;2451;49.970;9.068;2023-04-25T06:19:21;9.00;99.90
4874;DHT22;2451;49.970;9.068;2023-04-25T06:21:47;9.10;99.90
4874;DHT22;2451;49.970;9.068;2023-04-25T06:24:12;9.00;99.90
4874;DHT22;2451;49.970;9.068;2023-04-25T06:26:38;9.00;99.90
4874;DHT22;2451;49.970;9.068;2023-04-25T06:29:03;9.10;99.90
4874;DHT22;2451;49.970;9.068;2023-04-25T06:31:29;9.10;99.90
4874;DHT22;2451;49.970;9.068;2023-04-25T06:33:57;9.30;99.90
4874;DHT22;2451;49.970;9.068;2023-04-25T06:36:23;9.40;99.90
4874;DHT22;2451;49.970;9.068;2023-04-25T06:38:53;9.70;99.90
4874;DHT22;2451;49.970;9.068;2023-04-25T06:41:19;9.90;99.90
4874;DHT22;2451;49.970;9.068;2023-04-25T06:43:45;9.70;99.90
4874;DHT22;2451;49.970;9.068;2023-04-25T06:46:10;9.80;99.90
4874;DHT22;2451;49.970;9.068;2023-04-25T06:48:36;9.80;99.90
4874;DHT22;2451;49.970;9.068;2023-04-25T06:51:02;9.90;99.90
4874;DHT22;2451;49.970;9.068;2023-04-25T06:53:27;10.10;99.90
4874;DHT22;2451;49.970;9.068;2023-04-25T06:55:53;10.20;99.90
4874;DHT22;2451;49.970;9.068;2023-04-25T06:58:18;10.20;99.90
4874;DHT22;2451;49.970;9.068;2023-04-25T07:00:44;10.20;99.90
4874;DHT22;2451;49.970;9.068;2023-04-25T07:03:10;10.30;99.90
4874;DHT22;2451;49.970;9.068;2023-04-25T07:05:35;10.40;99.90
4874;DHT22;2451;49.970;9.068;2023-04-25T07:08:01;10.30;99.90
4874;DHT22;2451;49.970;9.068;2023-04-25T07:10:27;10.10;99.90
4874;DHT22;2451;49.970;9.068;2023-04-25T07:12:52;10.20;99.90
4874;DHT22;2451;49.970;9.068;2023-04-25T07:15:18;10.30;99.90
4874;DHT22;2451;49.970;9.068;2023-04-25T07:17:43;10.30;99.90
4874;DHT22;2451;49.970;9.068;2023-04-25T07:20:09;10.30;99.90
4874;DHT22;2451;49.970;9.068;2023-04-25T07:22:35;10.10;99.90
4874;DHT22;2451;49.970;9.068;2023-04-25T07:25:00;10.10;99.90
4874;DHT22;2451;49.970;9.068;2023-04-25T07:27:26;9.90;99.90
4874;DHT22;2451;49.970;9.068;2023-04-25T07:29:52;9.90;99.90
4874;DHT22;2451;49.970;9.068;2023-04-25T07:32:17;10.10;99.90
4874;DHT22;2451;49.970;9.068;2023-04-25T07:34:43;10.20;99.90
4874;DHT22;2451;49.970;9.068;2023-04-25T07:37:08;10.40;99.90
4874;DHT22;2451;49.970;9.068;2023-04-25T07:39:34;10.60;99.90
4874;DHT22;2451;49.970;9.068;2023-04-25T07:42:00;10.80;99.90
4874;DHT22;2451;49.970;9.068;2023-04-25T07:44:27;10.90;99.90
4874;DHT22;2451;49.970;9.068;2023-04-25T07:46:53;11.00;99.90
4874;DHT22;2451;49.970;9.068;2023-04-25T07:49:18;11.00;99.90
4874;DHT22;2451;49.970;9.068;2023-04-25T07:51:44;11.00;99.90
4874;DHT22;2451;49.970;9.068;2023-04-25T07:54:14;11.10;99.90
4874;DHT22;2451;49.970;9.068;2023-04-25T07:56:40;11.20;99.90
4874;DHT22;2451;49.970;9.068;2023-04-25T07:59:06;11.10;99.90
4874;DHT22;2451;49.970;9.068;2023-04-25T08:01:31;11.10;99.90
4874;DHT22;2451;49.970;9.068;2023-04-25T08:03:57;11.20;99.90
4874;DHT22;2451;49.970;9.068;2023-04-25T08:06:23;11.30;99.90
4874;DHT22;2451;49.970;9.068;2023-04-25T08:08:48;11.40;99.90
4874;DHT22;2451;49.970;9.068;2023-04-25T08:11:14;11.60;99.90
4874;DHT22;2451;49.970;9.068;2023-04-25T08:13:39;11.80;99.90
4874;DHT22;2451;49.970;9.068;2023-04-25T08:16:05;12.10;99.90
4874;DHT22;2451;49.970;9.068;2023-04-25T08:18:30;12.50;99.90
4874;DHT22;2451;49.970;9.068;2023-04-25T08:20:56;12.60;99.90
4874;DHT22;2451;49.970;9.068;2023-04-25T08:23:22;12.70;99.90
4874;DHT22;2451;49.970;9.068;2023-04-25T08:25:47;12.70;99.90
4874;DHT22;2451;49.970;9.068;2023-04-25T08:28:13;12.70;99.90
4874;DHT22;2451;49.970;9.068;2023-04-25T08:30:39;12.60;99.90
4874;DHT22;2451;49.970;9.068;2023-04-25T08:33:04;12.70;99.90
4874;DHT22;2451;49.970;9.068;2023-04-25T08:35:30;12.70;99.90
4874;DHT22;2451;49.970;9.068;2023-04-25T08:37:56;12.70;99.90
4874;DHT22;2451;49.970;9.068;2023-04-25T08:40:22;13.00;99.90
4874;DHT22;2451;49.970;9.068;2023-04-25T08:42:54;12.90;99.90
4874;DHT22;2451;49.970;9.068;2023-04-25T08:45:20;12.60;99.90
4874;DHT22;2451;49.970;9.068;2023-04-25T08:47:47;12.40;99.90
4874;DHT22;2451;49.970;9.068;2023-04-25T08:50:14;12.60;99.90
4874;DHT22;2451;49.970;9.068;2023-04-25T08:52:47;12.60;99.90
4874;DHT22;2451;49.970;9.068;2023-04-25T08:55:13;12.80;99.90
4874;DHT22;2451;49.970;9.068;2023-04-25T08:57:42;13.10;99.90
4874;DHT22;2451;49.970;9.068;2023-04-25T09:00:10;13.40;99.90
4874;DHT22;2451;49.970;9.068;2023-04-25T09:02:39;13.80;99.90
4874;DHT22;2451;49.970;9.068;2023-04-25T09:05:05;13.80;99.90
4874;DHT22;2451;49.970;9.068;2023-04-25T09:07:32;14.10;99.90
4874;DHT22;2451;49.970;9.068;2023-04-25T09:09:57;14.40;99.90
4874;DHT22;2451;49.970;9.068;2023-04-25T09:12:29;14.30;99.90
4874;DHT22;2451;49.970;9.068;2023-04-25T09:15:21;14.10;99.90
4874;DHT22;2451;49.970;9.068;2023-04-25T09:17:55;13.80;99.90
4874;DHT22;2451;49.970;9.068;2023-04-25T09:20:21;13.40;99.90
4874;DHT22;2451;49.970;9.068;2023-04-25T09:22:46;12.80;99.90
4874;DHT22;2451;49.970;9.068;2023-04-25T09:25:12;12.70;99.90
4874;DHT22;2451;49.970;9.068;2023-04-25T09:27:53;12.70;99.90
4874;DHT22;2451;49.970;9.068;2023-04-25T09:30:29;12.60;99.90
4874;DHT22;2451;49.970;9.068;2023-04-25T09:33:11;12.60;99.90
4874;DHT22;2451;49.970;9.068;2023-04-25T09:35:43;13.00;99.90
4874;DHT22;2451;49.970;9.068;2023-04-25T09:38:10;13.20;99.90
4874;DHT22;2451;49.970;9.068;2023-04-25T09:43:10;13.00;99.90
4874;DHT22;2451;49.970;9.068;2023-04-25T09:45:42;12.90;99.90
4874;DHT22;2451;49.970;9.068;2023-04-25T09:48:11;12.80;99.90
4874;DHT22;2451;49.970;9.068;2023-04-25T09:50:38;12.60;99.90
4874;DHT22;2451;49.970;9.068;2023-04-25T09:53:04;12.50;99.90
4874;DHT22;2451;49.970;9.068;2023-04-25T09:55:31;12.20;99.90
4874;DHT22;2451;49.970;9.068;2023-04-25T09:58:05;12.30;99.90
4874;DHT22;2451;49.970;9.068;2023-04-25T10:00:33;12.20;99.90
4874;DHT22;2451;49.970;9.068;2023-04-25T10:03:01;12.30;99.90
4874;DHT22;2451;49.970;9.068;2023-04-25T10:05:32;12.40;99.90
4874;DHT22;2451;49.970;9.068;2023-04-25T10:08:00;12.50;99.90
4874;DHT22;2451;49.970;9.068;2023-04-25T10:10:28;12.40;99.90
4874;DHT22;2451;49.970;9.068;2023-04-25T10:12:55;12.50;99.90
4874;DHT22;2451;49.970;9.068;2023-04-25T10:15:21;12.30;99.90
4874;DHT22;2451;49.970;9.068;2023-04-25T10:17:48;12.10;99.90
4874;DHT22;2451;49.970;9.068;2023-04-25T10:20:14;12.20;99.90
4874;DHT22;2451;49.970;9.068;2023-04-25T10:22:47;12.10;99.90
4874;DHT22;2451;49.970;9.068;2023-04-25T10:25:14;12.00;99.90
4874;DHT22;2451;49.970;9.068;2023-04-25T10:27:40;12.00;99.90
4874;DHT22;2451;49.970;9.068;2023-04-25T10:30:10;11.90;99.90
4874;DHT22;2451;49.970;9.068;2023-04-25T10:32:39;11.90;99.90
4874;DHT22;2451;49.970;9.068;2023-04-25T10:35:24;11.90;99.90
4874;DHT22;2451;49.970;9.068;2023-04-25T10:38:09;11.90;99.90
4874;DHT22;2451;49.970;9.068;2023-04-25T10:40:35;11.80;99.90
4874;DHT22;2451;49.970;9.068;2023-04-25T10:45:56;11.70;99.90
4874;DHT22;2451;49.970;9.068;2023-04-25T10:48:25;11.60;99.90
4874;DHT22;2451;49.970;9.068;2023-04-25T10:51:10;11.60;99.90
4874;DHT22;2451;49.970;9.068;2023-04-25T10:53:36;11.60;99.90
4874;DHT22;2451;49.970;9.068;2023-04-25T10:56:17;11.60;99.90
4874;DHT22;2451;49.970;9.068;2023-04-25T10:58:46;11.60;99.90
4874;DHT22;2451;49.970;9.068;2023-04-25T11:01:13;11.60;99.90
4874;DHT22;2451;49.970;9.068;2023-04-25T11:03:43;11.60;99.90
4874;DHT22;2451;49.970;9.068;2023-04-25T11:09:15;11.90;99.90
4874;DHT22;2451;49.970;9.068;2023-04-25T11:11:41;11.90;99.90
4874;DHT22;2451;49.970;9.068;2023-04-25T11:14:06;11.70;99.90
4874;DHT22;2451;49.970;9.068;2023-04-25T11:16:32;11.60;99.90
4874;DHT22;2451;49.970;9.068;2023-04-25T11:18:58;11.60;99.90
4874;DHT22;2451;49.970;9.068;2023-04-25T11:21:25;11.60;99.90
4874;DHT22;2451;49.970;9.068;2023-04-25T11:23:53;11.50;99.90
4874;DHT22;2451;49.970;9.068;2023-04-25T11:26:19;11.50;99.90
4874;DHT22;2451;49.970;9.068;2023-04-25T11:28:45;11.50;99.90
4874;DHT22;2451;49.970;9.068;2023-04-25T11:31:12;11.40;99.90
4874;DHT22;2451;49.970;9.068;2023-04-25T11:33:38;11.30;99.90
4874;DHT22;2451;49.970;9.068;2023-04-25T11:36:03;11.20;99.90
4874;DHT22;2451;49.970;9.068;2023-04-25T11:38:29;11.10;99.90
4874;DHT22;2451;49.970;9.068;2023-04-25T11:40:55;11.00;99.90
4874;DHT22;2451;49.970;9.068;2023-04-25T11:43:21;11.00;99.90
4874;DHT22;2451;49.970;9.068;2023-04-25T11:45:49;10.90;99.90
4874;DHT22;2451;49.970;9.068;2023-04-25T11:48:16;11.00;99.90
4874;DHT22;2451;49.970;9.068;2023-04-25T11:50:41;11.10;99.90
4874;DHT22;2451;49.970;9.068;2023-04-25T11:53:07;11.30;99.90
4874;DHT22;2451;49.970;9.068;2023-04-25T11:55:34;11.50;99.90
4874;DHT22;2451;49.970;9.068;2023-04-25T11:58:00;11.60;99.90
4874;DHT22;2451;49.970;9.068;2023-04-25T12:00:26;11.60;99.90
4874;DHT22;2451;49.970;9.068;2023-04-25T12:02:54;11.60;99.90
4874;DHT22;2451;49.970;9.068;2023-04-25T12:05:23;11.70;99.90
4874;DHT22;2451;49.970;9.068;2023-04-25T12:07:49;11.70;99.90
4874;DHT22;2451;49.970;9.068;2023-04-25T12:10:18;11.70;99.90
4874;DHT22;2451;49.970;9.068;2023-04-25T12:12:45;11.70;99.90
4874;DHT22;2451;49.970;9.068;2023-04-25T12:15:13;11.50;99.90
4874;DHT22;2451;49.970;9.068;2023-04-25T12:17:41;11.50;99.90
4874;DHT22;2451;49.970;9.068;2023-04-25T12:20:12;11.60;99.90
4874;DHT22;2451;49.970;9.068;2023-04-25T12:22:41;11.70;99.90
4874;DHT22;2451;49.970;9.068;2023-04-25T12:25:10;11.80;99.90
4874;DHT22;2451;49.970;9.068;2023-04-25T12:27:36;11.70;99.90
4874;DHT22;2451;49.970;9.068;2023-04-25T12:30:02;11.70;99.90
4874;DHT22;2451;49.970;9.068;2023-04-25T12:32:29;11.70;99.90
4874;DHT22;2451;49.970;9.068;2023-04-25T12:34:54;11.50;99.90
4874;DHT22;2451;49.970;9.068;2023-04-25T12:37:21;11.40;99.90
4874;DHT22;2451;49.970;9.068;2023-04-25T12:39:46;11.30;99.90
4874;DHT22;2451;49.970;9.068;2023-04-25T12:42:12;11.10;99.90
4874;DHT22;2451;49.970;9.068;2023-04-25T12:44:38;11.10;99.90
4874;DHT22;2451;49.970;9.068;2023-04-25T12:47:04;11.00;99.90
4874;DHT22;2451;49.970;9.068;2023-04-25T12:49:30;10.90;99.90
4874;DHT22;2451;49.970;9.068;2023-04-25T12:51:56;10.90;99.90
4874;DHT22;2451;49.970;9.068;2023-04-25T12:54:21;10.90;99.90
4874;DHT22;2451;49.970;9.068;2023-04-25T12:56:47;10.90;99.90
4874;DHT22;2451;49.970;9.068;2023-04-25T12:59:12;10.90;99.90
4874;DHT22;2451;49.970;9.068;2023-04-25T13:01:38;11.10;99.90
4874;DHT22;2451;49.970;9.068;2023-04-25T13:04:04;11.30;99.90
4874;DHT22;2451;49.970;9.068;2023-04-25T13:06:29;11.40;99.90
4874;DHT22;2451;49.970;9.068;2023-04-25T13:08:56;11.60;99.90
4874;DHT22;2451;49.970;9.068;2023-04-25T13:11:21;11.70;99.90
4874;DHT22;2451;49.970;9.068;2023-04-25T13:13:47;11.90;99.90
4874;DHT22;2451;49.970;9.068;2023-04-25T13:16:13;12.10;99.90
4874;DHT22;2451;49.970;9.068;2023-04-25T13:18:41;12.30;99.90
4874;DHT22;2451;49.970;9.068;2023-04-25T13:21:09;12.30;99.90
4874;DHT22;2451;49.970;9.068;2023-04-25T13:23:36;12.20;99.90
4874;DHT22;2451;49.970;9.068;2023-04-25T13:26:01;12.10;99.90
4874;DHT22;2451;49.970;9.068;2023-04-25T13:28:27;12.10;99.90
4874;DHT22;2451;49.970;9.068;2023-04-25T13:30:53;12.10;99.90
4874;DHT22;2451;49.970;9.068;2023-04-25T13:33:19;12.10;99.90
4874;DHT22;2451;49.970;9.068;2023-04-25T13:35:47;12.00;99.90
4874;DHT22;2451;49.970;9.068;2023-04-25T13:38:19;11.80;99.90
4874;DHT22;2451;49.970;9.068;2023-04-25T13:40:45;11.80;99.90
4874;DHT22;2451;49.970;9.068;2023-04-25T13:43:10;11.70;99.90
4874;DHT22;2451;49.970;9.068;2023-04-25T13:45:36;11.80;99.90
4874;DHT22;2451;49.970;9.068;2023-04-25T13:48:02;11.80;99.90
4874;DHT22;2451;49.970;9.068;2023-04-25T13:50:27;11.80;99.90
4874;DHT22;2451;49.970;9.068;2023-04-25T13:52:53;11.80;99.90
4874;DHT22;2451;49.970;9.068;2023-04-25T13:55:19;11.70;99.90
4874;DHT22;2451;49.970;9.068;2023-04-25T13:57:44;11.50;99.90
4874;DHT22;2451;49.970;9.068;2023-04-25T14:00:11;11.50;99.90
4874;DHT22;2451;49.970;9.068;2023-04-25T14:02:37;11.60;99.90
4874;DHT22;2451;49.970;9.068;2023-04-25T14:05:04;11.80;99.90
4874;DHT22;2451;49.970;9.068;2023-04-25T14:07:30;12.00;99.90
4874;DHT22;2451;49.970;9.068;2023-04-25T14:09:56;12.10;99.90
4874;DHT22;2451;49.970;9.068;2023-04-25T14:12:24;12.40;99.90
4874;DHT22;2451;49.970;9.068;2023-04-25T14:14:50;12.60;99.90
4874;DHT22;2451;49.970;9.068;2023-04-25T14:17:16;12.80;99.90
4874;DHT22;2451;49.970;9.068;2023-04-25T14:19:41;13.00;99.90
4874;DHT22;2451;49.970;9.068;2023-04-25T14:22:13;13.00;99.90
4874;DHT22;2451;49.970;9.068;2023-04-25T14:24:38;13.20;99.90
4874;DHT22;2451;49.970;9.068;2023-04-25T14:27:04;13.30;99.90
4874;DHT22;2451;49.970;9.068;2023-04-25T14:29:30;13.10;99.90
4874;DHT22;2451;49.970;9.068;2023-04-25T14:31:55;12.90;99.40
4874;DHT22;2451;49.970;9.068;2023-04-25T14:34:23;12.60;99.90
4874;DHT22;2451;49.970;9.068;2023-04-25T14:36:48;12.40;99.90
4874;DHT22;2451;49.970;9.068;2023-04-25T14:39:14;12.20;99.90
4874;DHT22;2451;49.970;9.068;2023-04-25T14:41:40;11.90;99.90
4874;DHT22;2451;49.970;9.068;2023-04-25T14:44:05;11.80;99.90
4874;DHT22;2451;49.970;9.068;2023-04-25T14:46:31;11.70;99.90
4874;DHT22;2451;49.970;9.068;2023-04-25T14:48:56;11.70;99.90
4874;DHT22;2451;49.970;9.068;2023-04-25T14:51:22;11.60;99.90
4874;DHT22;2451;49.970;9.068;2023-04-25T14:53:48;11.60;99.90
4874;DHT22;2451;49.970;9.068;2023-04-25T14:56:13;11.50;99.90
4874;DHT22;2451;49.970;9.068;2023-04-25T14:58:39;11.50;99.90
4874;DHT22;2451;49.970;9.068;2023-04-25T15:01:05;11.50;99.90
4874;DHT22;2451;49.970;9.068;2023-04-25T15:03:32;11.40;99.90
4874;DHT22;2451;49.970;9.068;2023-04-25T15:05:57;11.40;99.90
4874;DHT22;2451;49.970;9.068;2023-04-25T15:08:23;11.60;99.90
4874;DHT22;2451;49.970;9.068;2023-04-25T15:10:49;12.00;99.90
4874;DHT22;2451;49.970;9.068;2023-04-25T15:13:15;12.50;99.90
4874;DHT22;2451;49.970;9.068;2023-04-25T15:15:41;12.90;99.30
4874;DHT22;2451;49.970;9.068;2023-04-25T15:18:06;13.30;99.30
4874;DHT22;2451;49.970;9.068;2023-04-25T15:20:32;13.70;98.50
4874;DHT22;2451;49.970;9.068;2023-04-25T15:22:58;13.60;97.80
4874;DHT22;2451;49.970;9.068;2023-04-25T15:25:23;13.40;98.00
4874;DHT22;2451;49.970;9.068;2023-04-25T15:27:49;13.10;98.00
4874;DHT22;2451;49.970;9.068;2023-04-25T15:30:17;12.90;98.40
4874;DHT22;2451;49.970;9.068;2023-04-25T15:32:44;12.70;96.90
4874;DHT22;2451;49.970;9.068;2023-04-25T15:35:10;12.50;97.00
4874;DHT22;2451;49.970;9.068;2023-04-25T15:37:37;12.40;97.80
4874;DHT22;2451;49.970;9.068;2023-04-25T15:40:12;12.30;97.70
4874;DHT22;2451;49.970;9.068;2023-04-25T15:42:40;12.20;97.70
4874;DHT22;2451;49.970;9.068;2023-04-25T15:45:08;12.20;97.90
4874;DHT22;2451;49.970;9.068;2023-04-25T15:47:35;12.00;98.50
4874;DHT22;2451;49.970;9.068;2023-04-25T15:50:01;12.00;97.60
4874;DHT22;2451;49.970;9.068;2023-04-25T15:52:27;11.90;97.00
4874;DHT22;2451;49.970;9.068;2023-04-25T15:54:53;11.80;96.60
4874;DHT22;2451;49.970;9.068;2023-04-25T15:57:19;11.80;96.70
4874;DHT22;2451;49.970;9.068;2023-04-25T15:59:44;11.70;97.60
4874;DHT22;2451;49.970;9.068;2023-04-25T16:02:12;11.70;98.30
4874;DHT22;2451;49.970;9.068;2023-04-25T16:04:38;11.60;99.30
4874;DHT22;2451;49.970;9.068;2023-04-25T16:07:04;11.60;99.50
4874;DHT22;2451;49.970;9.068;2023-04-25T16:09:30;11.60;99.00
4874;DHT22;2451;49.970;9.068;2023-04-25T16:11:56;11.60;99.10
4874;DHT22;2451;49.970;9.068;2023-04-25T16:14:21;11.50;99.20